createdAt,value
2022-09-21T00:01:39.047Z,4.20
2022-09-21T00:04:07.287Z,5.10
2022-09-21T00:06:37.270Z,4.47
2022-09-21T00:09:06.162Z,4.40
2022-09-21T00:11:35.213Z,5.30
2022-09-21T00:14:08.737Z,4.37
2022-09-21T00:16:37.410Z,5.00
2022-09-21T00:19:06.663Z,4.23
2022-09-21T00:21:35.338Z,4.30
2022-09-21T00:24:03.744Z,4.27
2022-09-21T00:26:32.461Z,4.40
2022-09-21T00:29:02.742Z,4.10
2022-09-21T00:31:33.300Z,4.03
2022-09-21T00:34:03.459Z,4.40
2022-09-21T00:36:31.578Z,4.37
2022-09-21T00:39:01.936Z,5.20
2022-09-21T00:41:33.098Z,4.40
2022-09-21T00:44:29.220Z,4.53
2022-09-21T00:47:02.604Z,3.83
2022-09-21T00:49:31.835Z,4.17
2022-09-21T00:52:03.006Z,5.03
2022-09-21T00:54:35.078Z,4.37
2022-09-21T00:57:03.747Z,4.50
2022-09-21T00:59:33.366Z,4.93
2022-09-21T01:02:02.850Z,4.50
2022-09-21T01:04:31.713Z,4.70
2022-09-21T01:07:04.041Z,4.10
2022-09-21T01:09:32.590Z,4.30
2022-09-21T01:12:11.046Z,4.30
2022-09-21T01:15:10.973Z,3.80
2022-09-21T01:17:47.152Z,3.50
2022-09-21T01:20:51.109Z,4.10
2022-09-21T01:23:39.098Z,3.90
2022-09-21T01:26:15.130Z,3.70
2022-09-21T01:29:11.136Z,4.00
2022-09-21T01:31:43.340Z,3.67
2022-09-21T01:34:17.054Z,3.40
2022-09-21T01:36:48.477Z,4.07
2022-09-21T01:39:20.731Z,4.13
2022-09-21T01:41:52.537Z,4.17
2022-09-21T01:44:24.627Z,3.63
2022-09-21T01:46:54.472Z,3.67
2022-09-21T01:49:26.923Z,3.80
2022-09-21T01:51:59.686Z,3.77
2022-09-21T01:54:33.655Z,4.33
2022-09-21T01:57:07.282Z,4.40
2022-09-21T01:59:47.816Z,4.30
2022-09-21T02:02:20.728Z,4.10
2022-09-21T02:04:48.925Z,4.10
2022-09-21T02:07:18.724Z,4.53
2022-09-21T02:09:48.068Z,4.30
2022-09-21T02:12:19.146Z,4.37
2022-09-21T02:14:51.172Z,3.93
2022-09-21T02:17:34.214Z,4.07
2022-09-21T02:20:12.459Z,4.53
2022-09-21T02:22:49.572Z,4.00
2022-09-21T02:25:22.213Z,4.00
2022-09-21T02:27:55.198Z,4.00
2022-09-21T02:30:26.363Z,3.97
2022-09-21T02:33:00.040Z,4.03
2022-09-21T02:35:36.638Z,5.50
2022-09-21T02:38:11.895Z,4.27
2022-09-21T02:40:44.877Z,3.90
2022-09-21T02:43:21.382Z,3.90
2022-09-21T02:45:55.277Z,3.70
2022-09-21T02:48:27.631Z,4.17
2022-09-21T02:50:58.671Z,4.67
2022-09-21T02:53:30.638Z,3.80
2022-09-21T02:56:02.888Z,3.90
2022-09-21T02:58:32.597Z,4.10
2022-09-21T03:01:02.338Z,3.90
2022-09-21T03:03:30.262Z,3.97
2022-09-21T03:05:58.279Z,4.10
2022-09-21T03:08:26.151Z,3.70
2022-09-21T03:10:54.734Z,4.87
2022-09-21T03:13:22.596Z,4.57
2022-09-21T03:15:50.531Z,4.70
2022-09-21T03:18:19.780Z,4.20
2022-09-21T03:20:47.644Z,4.23
2022-09-21T03:23:15.647Z,4.13
2022-09-21T03:25:46.056Z,5.23
2022-09-21T03:28:14.603Z,4.27
2022-09-21T03:30:42.537Z,4.07
2022-09-21T03:33:10.614Z,4.50
2022-09-21T03:35:40.372Z,4.43
2022-09-21T03:38:08.254Z,4.23
2022-09-21T03:40:36.481Z,4.07
2022-09-21T03:43:04.881Z,4.30
2022-09-21T03:45:32.744Z,4.23
2022-09-21T03:48:01.430Z,5.00
2022-09-21T03:50:30.303Z,4.30
2022-09-21T03:52:59.833Z,4.30
2022-09-21T03:55:29.700Z,4.63
2022-09-21T03:57:57.552Z,4.37
2022-09-21T04:00:25.624Z,4.60
2022-09-21T04:02:53.891Z,4.17
2022-09-21T04:05:22.257Z,4.30
2022-09-21T04:07:50.303Z,4.23
2022-09-21T04:10:23.377Z,4.50
2022-09-21T04:12:52.033Z,4.00
2022-09-21T04:15:38.363Z,4.37
2022-09-21T04:18:07.431Z,4.53
2022-09-21T04:20:35.311Z,4.60
2022-09-21T04:23:03.207Z,4.63
2022-09-21T04:25:32.708Z,3.70
2022-09-21T04:28:00.592Z,3.93
2022-09-21T04:30:29.022Z,3.80
2022-09-21T04:32:56.876Z,4.50
2022-09-21T04:35:24.839Z,4.20
2022-09-21T04:37:55.987Z,4.43
2022-09-21T04:40:24.266Z,4.07
2022-09-21T04:42:54.203Z,3.93
2022-09-21T04:45:22.375Z,4.70
2022-09-21T04:47:50.400Z,4.30
2022-09-21T04:50:19.368Z,4.80
2022-09-21T04:52:47.773Z,3.93
2022-09-21T04:55:16.459Z,4.13
2022-09-21T04:57:44.292Z,4.43
2022-09-21T05:00:14.591Z,4.73
2022-09-21T05:02:42.428Z,4.30
2022-09-21T05:05:10.527Z,4.33
2022-09-21T05:07:38.369Z,4.60
2022-09-21T05:10:06.251Z,4.60
2022-09-21T05:12:39.706Z,4.47
2022-09-21T05:15:10.399Z,5.17
2022-09-21T05:17:39.695Z,4.40
2022-09-21T05:20:08.520Z,4.70
2022-09-21T05:22:36.481Z,4.03
2022-09-21T05:25:04.699Z,4.20
2022-09-21T05:27:32.564Z,4.83
2022-09-21T05:30:00.986Z,4.77
2022-09-21T05:32:38.830Z,5.60
2022-09-21T05:35:17.444Z,5.37
2022-09-21T05:37:51.457Z,5.10
2022-09-21T05:40:20.144Z,5.77
2022-09-21T05:42:48.592Z,4.30
2022-09-21T05:45:18.507Z,5.73
2022-09-21T05:47:57.038Z,4.90
2022-09-21T05:50:38.912Z,4.33
2022-09-21T05:53:29.010Z,4.47
2022-09-21T05:55:58.747Z,4.37
2022-09-21T05:58:34.006Z,5.10
2022-09-21T06:01:18.028Z,4.60
2022-09-21T06:03:48.703Z,5.17
2022-09-21T06:06:18.293Z,5.67
2022-09-21T06:08:46.157Z,5.37
2022-09-21T06:11:14.748Z,5.77
2022-09-21T06:13:42.727Z,5.33
2022-09-21T06:16:10.662Z,5.17
2022-09-21T06:18:39.775Z,5.03
2022-09-21T06:21:08.914Z,5.23
2022-09-21T06:23:38.692Z,5.37
2022-09-21T06:26:06.802Z,6.30
2022-09-21T06:28:34.676Z,5.67
2022-09-21T06:31:02.617Z,5.17
2022-09-21T06:33:30.838Z,6.17
2022-09-21T06:36:00.329Z,6.27
2022-09-21T06:38:29.362Z,7.80
2022-09-21T06:41:02.767Z,6.57
2022-09-21T06:43:31.040Z,6.83
2022-09-21T06:46:00.388Z,7.10
2022-09-21T06:48:29.428Z,7.60
2022-09-21T06:51:00.408Z,6.80
2022-09-21T06:53:29.574Z,8.20
2022-09-21T06:56:03.725Z,7.93
2022-09-21T06:58:34.136Z,7.87
2022-09-21T07:01:07.145Z,8.47
2022-09-21T07:03:35.371Z,8.53
2022-09-21T07:06:03.346Z,8.60
2022-09-21T07:11:20.923Z,8.70
2022-09-21T07:13:48.962Z,8.13
2022-09-21T07:16:16.998Z,8.47
2022-09-21T07:18:44.859Z,9.03
2022-09-21T07:21:14.443Z,9.20
2022-09-21T07:23:42.310Z,8.90
2022-09-21T07:26:11.754Z,8.40
2022-09-21T07:28:41.475Z,8.70
2022-09-21T07:31:11.262Z,8.63
2022-09-21T07:33:39.290Z,9.00
2022-09-21T07:36:10.431Z,7.37
2022-09-21T07:38:40.228Z,6.93
2022-09-21T07:41:08.642Z,7.00
2022-09-21T07:43:39.260Z,8.10
2022-09-21T07:46:09.226Z,7.20
2022-09-21T07:48:37.216Z,7.27
2022-09-21T07:51:06.403Z,6.80
2022-09-21T07:53:34.878Z,7.10
2022-09-21T07:56:04.374Z,5.30
2022-09-21T07:58:50.335Z,4.60
2022-09-21T08:01:19.629Z,4.73
2022-09-21T08:03:50.037Z,5.40
2022-09-21T08:06:18.816Z,5.53
2022-09-21T08:08:48.207Z,4.70
2022-09-21T08:11:17.895Z,4.87
2022-09-21T08:13:45.760Z,4.83
2022-09-21T08:16:13.716Z,4.97
2022-09-21T08:18:43.643Z,5.10
2022-09-21T08:21:12.959Z,4.50
2022-09-21T08:23:43.106Z,3.90
2022-09-21T08:26:16.401Z,3.63
2022-09-21T08:28:44.396Z,4.00
2022-09-21T08:31:12.362Z,3.63
2022-09-21T08:33:40.252Z,3.33
2022-09-21T08:36:10.490Z,3.30
2022-09-21T08:38:40.179Z,2.97
2022-09-21T08:41:17.002Z,2.90
2022-09-21T08:43:46.451Z,2.63
2022-09-21T08:46:18.657Z,2.30
2022-09-21T08:48:50.664Z,2.40
2022-09-21T08:51:25.091Z,2.30
2022-09-21T08:53:57.813Z,2.40
2022-09-21T08:56:47.084Z,2.40
2022-09-21T08:59:16.531Z,2.40
2022-09-21T09:01:58.236Z,2.03
2022-09-21T09:04:43.636Z,2.20
2022-09-21T09:07:26.609Z,1.80
2022-09-21T09:10:14.014Z,1.90
2022-09-21T09:12:56.244Z,1.50
2022-09-21T09:15:49.127Z,2.00
2022-09-21T09:18:25.171Z,2.00
2022-09-21T09:20:58.113Z,2.33
2022-09-21T09:23:29.746Z,2.20
2022-09-21T09:26:02.919Z,1.83
2022-09-21T09:28:37.164Z,2.10
2022-09-21T09:31:11.413Z,1.90
2022-09-21T09:33:51.002Z,1.90
2022-09-21T09:36:34.746Z,1.77
2022-09-21T09:39:12.875Z,1.70
2022-09-21T09:41:59.059Z,2.10
2022-09-21T09:44:44.453Z,2.40
2022-09-21T09:47:18.903Z,1.80
2022-09-21T09:50:00.112Z,1.80
2022-09-21T09:52:28.667Z,1.60
2022-09-21T09:54:58.839Z,1.57
2022-09-21T09:57:31.276Z,2.00
2022-09-21T10:00:03.759Z,1.60
2022-09-21T10:02:48.162Z,1.63
2022-09-21T10:05:22.712Z,2.10
2022-09-21T10:07:51.886Z,2.00
2022-09-21T10:10:34.206Z,1.87
2022-09-21T10:13:14.298Z,1.50
2022-09-21T10:15:45.913Z,1.40
2022-09-21T10:18:20.075Z,1.67
2022-09-21T10:20:59.271Z,1.90
2022-09-21T10:23:28.223Z,1.80
2022-09-21T10:26:04.032Z,1.77
2022-09-21T10:28:32.651Z,1.50
2022-09-21T10:31:17.651Z,1.70
2022-09-21T10:33:51.028Z,1.47
2022-09-21T10:36:33.791Z,1.40
2022-09-21T10:39:23.618Z,1.10
2022-09-21T10:41:55.747Z,1.40
2022-09-21T10:44:27.439Z,1.27
2022-09-21T10:49:30.328Z,1.40
2022-09-21T10:52:00.031Z,1.30
2022-09-21T10:54:32.500Z,1.00
2022-09-21T10:57:05.103Z,1.30
2022-09-21T10:59:34.399Z,1.13
2022-09-21T11:02:08.791Z,0.97
2022-09-21T11:04:42.644Z,1.17
2022-09-21T11:07:20.228Z,1.30
2022-09-21T11:09:55.857Z,1.20
2022-09-21T11:12:36.365Z,1.23
2022-09-21T11:15:16.759Z,1.10
2022-09-21T11:17:50.678Z,1.20
2022-09-21T11:20:29.400Z,1.20
2022-09-21T11:23:04.259Z,1.33
2022-09-21T11:25:38.049Z,1.30
2022-09-21T11:28:15.547Z,1.33
2022-09-21T11:31:03.421Z,0.90
2022-09-21T11:33:47.338Z,1.40
2022-09-21T11:36:20.576Z,1.40
2022-09-21T11:38:58.225Z,1.00
2022-09-21T11:41:56.251Z,1.30
2022-09-21T11:44:43.555Z,1.20
2022-09-21T11:47:27.827Z,1.60
2022-09-21T11:50:29.647Z,1.20
2022-09-21T11:53:11.182Z,1.20
2022-09-21T11:56:05.307Z,1.20
2022-09-21T11:58:39.615Z,1.00
2022-09-21T12:01:18.607Z,1.30
2022-09-21T12:04:02.071Z,1.23
2022-09-21T12:06:44.279Z,1.20
2022-09-21T12:09:28.653Z,0.97
2022-09-21T12:12:03.340Z,1.57
2022-09-21T12:17:16.744Z,1.20
2022-09-21T12:19:51.095Z,1.30
2022-09-21T12:22:23.130Z,1.30
2022-09-21T12:24:53.899Z,1.40
2022-09-21T12:27:28.646Z,1.50
2022-09-21T12:30:00.564Z,1.20
2022-09-21T12:32:49.471Z,1.30
2022-09-21T12:35:22.267Z,1.80
2022-09-21T12:37:55.595Z,1.40
2022-09-21T12:40:29.041Z,1.17
2022-09-21T12:43:04.162Z,1.37
2022-09-21T12:45:38.207Z,1.20
2022-09-21T12:48:11.786Z,1.70
2022-09-21T12:50:45.362Z,1.40
2022-09-21T12:53:18.961Z,1.10
2022-09-21T12:55:55.748Z,1.30
2022-09-21T12:58:44.071Z,1.43
2022-09-21T13:01:32.494Z,1.20
2022-09-21T13:04:26.522Z,1.50
2022-09-21T13:07:32.754Z,1.23
2022-09-21T13:10:08.297Z,1.30
2022-09-21T13:12:44.125Z,1.20
2022-09-21T13:15:17.987Z,1.10
2022-09-21T13:17:45.970Z,1.10
2022-09-21T13:20:21.183Z,1.40
2022-09-21T13:22:50.377Z,1.27
2022-09-21T13:25:23.780Z,1.50
2022-09-21T13:28:04.409Z,1.40
2022-09-21T13:30:37.050Z,1.70
2022-09-21T13:33:26.615Z,1.43
2022-09-21T13:36:03.791Z,1.23
2022-09-21T13:38:37.276Z,1.30
2022-09-21T13:41:35.521Z,1.70
2022-09-21T13:44:40.248Z,1.80
2022-09-21T13:47:10.053Z,1.93
2022-09-21T13:49:45.036Z,1.83
2022-09-21T13:52:44.697Z,1.60
2022-09-21T13:55:28.288Z,2.10
2022-09-21T13:57:58.828Z,1.90
2022-09-21T14:00:36.951Z,2.13
2022-09-21T14:03:18.114Z,1.90
2022-09-21T14:05:47.817Z,2.20
2022-09-21T14:08:27.563Z,2.10
2022-09-21T14:10:59.836Z,1.87
2022-09-21T14:13:33.652Z,2.33
2022-09-21T14:16:27.345Z,1.83
2022-09-21T14:18:55.386Z,1.90
2022-09-21T14:21:23.793Z,2.43
2022-09-21T14:24:20.962Z,2.20
2022-09-21T14:26:55.161Z,2.00
2022-09-21T14:29:26.631Z,2.20
2022-09-21T14:31:58.062Z,2.20
2022-09-21T14:34:28.451Z,1.90
2022-09-21T14:36:59.743Z,2.23
2022-09-21T14:39:33.018Z,2.40
2022-09-21T14:42:04.628Z,2.20
2022-09-21T14:44:35.312Z,2.20
2022-09-21T14:47:29.462Z,2.20
2022-09-21T14:50:19.550Z,2.47
2022-09-21T14:53:14.674Z,2.33
2022-09-21T14:55:57.005Z,2.70
2022-09-21T14:58:35.807Z,2.87
2022-09-21T15:01:22.865Z,2.50
2022-09-21T15:04:09.559Z,2.53
2022-09-21T15:07:00.269Z,2.50
2022-09-21T15:10:02.795Z,2.90
2022-09-21T15:12:40.446Z,2.73
2022-09-21T15:15:24.190Z,2.67
2022-09-21T15:17:59.291Z,2.90
2022-09-21T15:20:29.407Z,3.17
2022-09-21T15:22:58.353Z,3.13
2022-09-21T15:25:28.652Z,3.30
2022-09-21T15:27:58.061Z,3.20
2022-09-21T15:30:28.574Z,3.50
2022-09-21T15:32:58.335Z,2.50
2022-09-21T15:35:28.322Z,2.93
2022-09-21T15:37:57.424Z,3.00
2022-09-21T15:40:45.963Z,3.00
2022-09-21T15:43:20.529Z,2.77
2022-09-21T15:45:54.498Z,2.73
2022-09-21T15:48:22.863Z,2.90
2022-09-21T15:51:12.633Z,2.87
2022-09-21T15:53:45.642Z,2.57
2022-09-21T15:56:20.790Z,2.50
2022-09-21T15:58:50.694Z,2.90
2022-09-21T16:01:23.525Z,2.73
2022-09-21T16:04:04.151Z,2.70
2022-09-21T16:06:37.847Z,2.77
2022-09-21T16:09:44.937Z,2.70
2022-09-21T16:12:44.412Z,2.60
2022-09-21T16:15:28.287Z,2.57
2022-09-21T16:18:02.770Z,2.50
2022-09-21T16:20:45.731Z,2.90
2022-09-21T16:23:16.600Z,2.70
2022-09-21T16:25:45.162Z,2.90
2022-09-21T16:28:37.697Z,3.20
2022-09-21T16:31:29.815Z,3.17
2022-09-21T16:34:04.710Z,2.93
2022-09-21T16:36:42.821Z,3.30
2022-09-21T16:39:15.475Z,2.70
2022-09-21T16:41:48.237Z,3.00
2022-09-21T16:44:20.795Z,2.93
2022-09-21T16:46:54.689Z,3.13
2022-09-21T16:49:29.981Z,2.67
2022-09-21T16:51:59.251Z,3.00
2022-09-21T16:54:27.995Z,2.80
2022-09-21T16:56:57.923Z,3.10
2022-09-21T16:59:26.690Z,2.93
2022-09-21T17:01:57.927Z,3.07
2022-09-21T17:04:27.922Z,3.40
2022-09-21T17:06:56.335Z,3.10
2022-09-21T17:09:29.503Z,3.00
2022-09-21T17:12:01.145Z,3.10
2022-09-21T17:14:35.416Z,2.87
2022-09-21T17:17:08.278Z,3.20
2022-09-21T17:19:36.792Z,3.10
2022-09-21T17:22:06.805Z,2.80
2022-09-21T17:24:50.321Z,3.27
2022-09-21T17:27:19.952Z,2.93
2022-09-21T17:29:49.177Z,2.90
2022-09-21T17:32:20.768Z,3.17
2022-09-21T17:34:53.132Z,2.90
2022-09-21T17:37:21.762Z,3.13
2022-09-21T17:39:49.807Z,3.03
2022-09-21T17:42:21.288Z,3.53
2022-09-21T17:45:05.136Z,3.20
2022-09-21T17:47:34.969Z,3.50
2022-09-21T17:50:16.003Z,3.20
2022-09-21T17:53:03.075Z,3.03
2022-09-21T17:55:32.085Z,2.80
2022-09-21T17:58:23.231Z,2.93
2022-09-21T18:00:59.306Z,3.37
2022-09-21T18:03:30.903Z,3.33
2022-09-21T18:06:00.523Z,3.67
2022-09-21T18:08:29.139Z,3.23
2022-09-21T18:11:23.366Z,3.67
2022-09-21T18:13:59.647Z,3.47
2022-09-21T18:16:33.494Z,3.40
2022-09-21T18:19:29.071Z,3.53
2022-09-21T18:22:13.743Z,3.67
2022-09-21T18:24:42.430Z,3.80
2022-09-21T18:27:12.716Z,3.60
2022-09-21T18:29:41.800Z,3.43
2022-09-21T18:32:41.721Z,3.70
2022-09-21T18:35:28.173Z,3.80
2022-09-21T18:38:05.515Z,4.20
2022-09-21T18:40:41.290Z,3.67
2022-09-21T18:43:34.952Z,4.10
2022-09-21T18:46:06.934Z,3.53
2022-09-21T18:48:50.738Z,4.10
2022-09-21T18:51:24.919Z,4.13
2022-09-21T18:53:56.288Z,3.60
2022-09-21T18:56:25.308Z,3.90
2022-09-21T18:58:53.873Z,4.27
2022-09-21T19:01:23.669Z,4.20
2022-09-21T19:03:52.167Z,4.57
2022-09-21T19:06:30.297Z,4.10
2022-09-21T19:09:07.757Z,4.20
2022-09-21T19:11:44.531Z,4.07
2022-09-21T19:14:22.172Z,4.77
2022-09-21T19:17:05.882Z,4.00
2022-09-21T19:19:41.087Z,4.27
2022-09-21T19:22:15.554Z,4.30
2022-09-21T19:24:56.055Z,4.00
2022-09-21T19:27:33.799Z,4.10
2022-09-21T19:30:06.448Z,4.70
2022-09-21T19:32:41.860Z,4.50
2022-09-21T19:35:24.650Z,4.03
2022-09-21T19:37:56.098Z,4.23
2022-09-21T19:40:26.701Z,4.10
2022-09-21T19:43:20.938Z,4.50
2022-09-21T19:46:05.230Z,5.10
2022-09-21T19:48:42.379Z,4.00
2022-09-21T19:51:17.314Z,5.27
2022-09-21T19:54:08.403Z,4.93
2022-09-21T19:56:58.784Z,6.10
2022-09-21T19:59:53.260Z,6.77
2022-09-21T20:02:28.645Z,6.40
2022-09-21T20:04:58.330Z,6.20
2022-09-21T20:07:44.114Z,7.50
2022-09-21T20:10:35.165Z,8.97
2022-09-21T20:13:15.007Z,8.73
2022-09-21T20:15:48.134Z,7.93
2022-09-21T20:18:21.471Z,7.77
2022-09-21T20:20:49.577Z,8.60
2022-09-21T20:23:17.882Z,6.97
2022-09-21T20:25:52.333Z,7.67
2022-09-21T20:28:20.782Z,7.10
2022-09-21T20:30:50.051Z,7.27
2022-09-21T20:33:22.554Z,6.67
2022-09-21T20:35:52.063Z,6.97
2022-09-21T20:38:19.928Z,6.60
2022-09-21T20:40:49.304Z,6.57
2022-09-21T20:43:17.306Z,6.63
2022-09-21T20:45:47.680Z,7.00
2022-09-21T20:48:15.847Z,6.87
2022-09-21T20:50:46.030Z,6.93
2022-09-21T20:53:14.535Z,7.17
2022-09-21T20:55:43.924Z,6.20
2022-09-21T20:58:14.112Z,7.40
2022-09-21T21:00:42.508Z,7.13
2022-09-21T21:03:12.515Z,7.20
2022-09-21T21:05:40.699Z,7.03
2022-09-21T21:08:09.050Z,6.50
2022-09-21T21:10:37.011Z,7.50
2022-09-21T21:13:05.691Z,6.90
2022-09-21T21:15:34.916Z,7.30
2022-09-21T21:18:02.739Z,6.80
2022-09-21T21:20:30.908Z,6.80
2022-09-21T21:22:59.117Z,7.80
2022-09-21T21:25:27.047Z,7.27
2022-09-21T21:27:57.323Z,6.53
2022-09-21T21:30:25.461Z,8.00
2022-09-21T21:32:54.741Z,6.40
2022-09-21T21:35:22.731Z,7.10
2022-09-21T21:37:50.941Z,8.00
2022-09-21T21:40:20.579Z,6.90
2022-09-21T21:42:48.607Z,8.07
2022-09-21T21:45:17.976Z,7.53
2022-09-21T21:47:45.854Z,9.43
2022-09-21T21:50:15.127Z,9.10
2022-09-21T21:52:45.007Z,7.87
2022-09-21T21:55:14.169Z,8.30
2022-09-21T21:57:42.050Z,8.93
2022-09-21T22:00:11.247Z,9.10
2022-09-21T22:02:39.162Z,8.03
2022-09-21T22:05:07.996Z,9.47
2022-09-21T22:07:37.674Z,8.93
2022-09-21T22:10:08.798Z,8.20
2022-09-21T22:12:36.640Z,8.90
2022-09-21T22:15:04.700Z,8.67
2022-09-21T22:17:32.550Z,8.50
2022-09-21T22:20:00.391Z,7.60
2022-09-21T22:22:28.250Z,9.00
2022-09-21T22:24:57.545Z,9.30
2022-09-21T22:27:25.545Z,9.17
2022-09-21T22:29:53.446Z,9.77
2022-09-21T22:32:21.286Z,9.07
2022-09-21T22:34:50.310Z,9.57
2022-09-21T22:37:18.146Z,9.60
2022-09-21T22:39:46.006Z,9.80
2022-09-21T22:42:15.250Z,8.97
2022-09-21T22:44:43.103Z,10.37
2022-09-21T22:47:10.978Z,11.83
2022-09-21T22:49:38.851Z,9.37
2022-09-21T22:52:07.209Z,10.07
2022-09-21T22:54:35.071Z,9.63
2022-09-21T22:57:02.988Z,11.00
2022-09-21T22:59:32.198Z,11.20
2022-09-21T23:02:00.106Z,10.43
2022-09-21T23:04:28.119Z,10.80
2022-09-21T23:06:56.079Z,12.40
2022-09-21T23:09:23.963Z,10.97
2022-09-21T23:11:53.726Z,11.10
2022-09-21T23:14:22.424Z,10.60
2022-09-21T23:16:51.741Z,10.80
2022-09-21T23:19:19.612Z,10.93
2022-09-21T23:21:50.279Z,10.27
2022-09-21T23:24:19.141Z,10.87
2022-09-21T23:26:47.938Z,10.77
2022-09-21T23:29:16.691Z,11.00
2022-09-21T23:31:46.300Z,13.13
2022-09-21T23:34:16.727Z,10.13
2022-09-21T23:36:45.760Z,11.97
2022-09-21T23:39:15.197Z,11.57
2022-09-21T23:41:43.725Z,11.40
2022-09-21T23:44:11.751Z,11.30
2022-09-21T23:46:40.963Z,13.00
2022-09-21T23:49:09.261Z,11.20
2022-09-21T23:51:38.634Z,12.43
2022-09-21T23:54:06.728Z,12.37
2022-09-21T23:56:35.042Z,13.33
2022-09-21T23:59:03.051Z,10.27
